sensor_id;sensor_type;location;lat;lon;timestamp;P1;durP1;ratioP1;P2;durP2;ratioP2
5831;SDS011;50943;51.448;7.646;2022-07-23T00:00:14;21.90;;;14.40;;
5831;SDS011;50943;51.448;7.646;2022-07-23T00:02:43;20.10;;;13.57;;
5831;SDS011;50943;51.448;7.646;2022-07-23T00:05:10;26.73;;;15.33;;
5831;SDS011;50943;51.448;7.646;2022-07-23T00:07:37;23.23;;;15.50;;
5831;SDS011;50943;51.448;7.646;2022-07-23T00:10:04;22.93;;;14.80;;
5831;SDS011;50943;51.448;7.646;2022-07-23T00:12:31;32.40;;;16.17;;
5831;SDS011;50943;51.448;7.646;2022-07-23T00:14:58;24.07;;;14.70;;
5831;SDS011;50943;51.448;7.646;2022-07-23T00:17:24;28.10;;;16.70;;
5831;SDS011;50943;51.448;7.646;2022-07-23T00:19:52;26.27;;;16.50;;
5831;SDS011;50943;51.448;7.646;2022-07-23T00:22:19;35.47;;;19.47;;
5831;SDS011;50943;51.448;7.646;2022-07-23T00:24:46;34.50;;;18.37;;
5831;SDS011;50943;51.448;7.646;2022-07-23T00:27:12;39.57;;;20.70;;
5831;SDS011;50943;51.448;7.646;2022-07-23T00:29:39;34.67;;;20.10;;
5831;SDS011;50943;51.448;7.646;2022-07-23T00:32:05;40.73;;;21.13;;
5831;SDS011;50943;51.448;7.646;2022-07-23T00:34:32;36.83;;;20.70;;
5831;SDS011;50943;51.448;7.646;2022-07-23T00:37:00;38.20;;;20.77;;
5831;SDS011;50943;51.448;7.646;2022-07-23T00:39:26;40.27;;;20.93;;
5831;SDS011;50943;51.448;7.646;2022-07-23T00:41:53;47.57;;;23.77;;
5831;SDS011;50943;51.448;7.646;2022-07-23T00:44:20;40.57;;;22.27;;
5831;SDS011;50943;51.448;7.646;2022-07-23T00:46:48;44.03;;;23.87;;
5831;SDS011;50943;51.448;7.646;2022-07-23T00:49:18;58.00;;;25.13;;
5831;SDS011;50943;51.448;7.646;2022-07-23T00:51:44;50.40;;;25.23;;
5831;SDS011;50943;51.448;7.646;2022-07-23T00:54:12;51.60;;;26.03;;
5831;SDS011;50943;51.448;7.646;2022-07-23T00:56:39;47.50;;;25.90;;
5831;SDS011;50943;51.448;7.646;2022-07-23T00:59:07;55.50;;;25.97;;
5831;SDS011;50943;51.448;7.646;2022-07-23T01:01:34;54.80;;;26.60;;
5831;SDS011;50943;51.448;7.646;2022-07-23T01:04:01;58.80;;;26.97;;
5831;SDS011;50943;51.448;7.646;2022-07-23T01:06:28;67.30;;;28.67;;
5831;SDS011;50943;51.448;7.646;2022-07-23T01:08:55;69.60;;;27.67;;
5831;SDS011;50943;51.448;7.646;2022-07-23T01:11:23;60.50;;;28.70;;
5831;SDS011;50943;51.448;7.646;2022-07-23T01:13:51;61.03;;;27.97;;
5831;SDS011;50943;51.448;7.646;2022-07-23T01:16:19;67.70;;;28.43;;
5831;SDS011;50943;51.448;7.646;2022-07-23T01:18:46;64.80;;;28.57;;
5831;SDS011;50943;51.448;7.646;2022-07-23T01:21:13;77.90;;;31.97;;
5831;SDS011;50943;51.448;7.646;2022-07-23T01:23:41;60.53;;;28.77;;
5831;SDS011;50943;51.448;7.646;2022-07-23T01:26:08;58.13;;;28.17;;
5831;SDS011;50943;51.448;7.646;2022-07-23T01:28:34;48.67;;;26.00;;
5831;SDS011;50943;51.448;7.646;2022-07-23T01:31:01;69.60;;;31.40;;
5831;SDS011;50943;51.448;7.646;2022-07-23T01:33:28;65.87;;;31.30;;
5831;SDS011;50943;51.448;7.646;2022-07-23T01:35:55;64.67;;;30.10;;
5831;SDS011;50943;51.448;7.646;2022-07-23T01:38:22;86.53;;;32.10;;
5831;SDS011;50943;51.448;7.646;2022-07-23T01:40:49;84.30;;;32.73;;
5831;SDS011;50943;51.448;7.646;2022-07-23T01:43:16;80.13;;;30.90;;
5831;SDS011;50943;51.448;7.646;2022-07-23T01:45:43;69.60;;;30.27;;
5831;SDS011;50943;51.448;7.646;2022-07-23T01:48:10;77.97;;;32.50;;
5831;SDS011;50943;51.448;7.646;2022-07-23T01:50:36;71.13;;;31.53;;
5831;SDS011;50943;51.448;7.646;2022-07-23T01:53:03;82.70;;;33.10;;
5831;SDS011;50943;51.448;7.646;2022-07-23T01:55:30;88.17;;;33.47;;
5831;SDS011;50943;51.448;7.646;2022-07-23T01:57:58;80.43;;;32.70;;
5831;SDS011;50943;51.448;7.646;2022-07-23T02:00:24;81.63;;;34.47;;
5831;SDS011;50943;51.448;7.646;2022-07-23T02:02:51;78.47;;;32.57;;
5831;SDS011;50943;51.448;7.646;2022-07-23T02:05:18;85.60;;;33.50;;
5831;SDS011;50943;51.448;7.646;2022-07-23T02:07:45;69.20;;;30.70;;
5831;SDS011;50943;51.448;7.646;2022-07-23T02:10:11;87.13;;;32.50;;
5831;SDS011;50943;51.448;7.646;2022-07-23T02:12:38;74.30;;;31.57;;
5831;SDS011;50943;51.448;7.646;2022-07-23T02:15:06;66.53;;;29.00;;
5831;SDS011;50943;51.448;7.646;2022-07-23T02:17:33;76.10;;;31.20;;
5831;SDS011;50943;51.448;7.646;2022-07-23T02:20:00;75.27;;;30.50;;
5831;SDS011;50943;51.448;7.646;2022-07-23T02:22:27;87.03;;;30.27;;
5831;SDS011;50943;51.448;7.646;2022-07-23T02:24:53;69.90;;;28.77;;
5831;SDS011;50943;51.448;7.646;2022-07-23T02:27:20;74.13;;;31.10;;
5831;SDS011;50943;51.448;7.646;2022-07-23T02:29:46;63.73;;;26.60;;
5831;SDS011;50943;51.448;7.646;2022-07-23T02:32:15;52.63;;;23.73;;
5831;SDS011;50943;51.448;7.646;2022-07-23T02:34:41;55.83;;;25.67;;
5831;SDS011;50943;51.448;7.646;2022-07-23T02:37:08;73.73;;;29.80;;
5831;SDS011;50943;51.448;7.646;2022-07-23T02:39:34;72.30;;;29.50;;
5831;SDS011;50943;51.448;7.646;2022-07-23T02:42:01;67.77;;;28.00;;
5831;SDS011;50943;51.448;7.646;2022-07-23T02:44:28;77.67;;;28.80;;
5831;SDS011;50943;51.448;7.646;2022-07-23T02:46:54;69.63;;;27.80;;
5831;SDS011;50943;51.448;7.646;2022-07-23T02:49:22;89.13;;;31.60;;
5831;SDS011;50943;51.448;7.646;2022-07-23T02:51:48;84.17;;;31.53;;
5831;SDS011;50943;51.448;7.646;2022-07-23T02:54:15;73.67;;;26.60;;
5831;SDS011;50943;51.448;7.646;2022-07-23T02:56:42;82.40;;;30.67;;
5831;SDS011;50943;51.448;7.646;2022-07-23T02:59:08;85.80;;;29.50;;
5831;SDS011;50943;51.448;7.646;2022-07-23T03:01:36;70.80;;;25.10;;
5831;SDS011;50943;51.448;7.646;2022-07-23T03:04:02;79.87;;;30.27;;
5831;SDS011;50943;51.448;7.646;2022-07-23T03:06:30;81.67;;;28.57;;
5831;SDS011;50943;51.448;7.646;2022-07-23T03:08:57;70.30;;;26.97;;
5831;SDS011;50943;51.448;7.646;2022-07-23T03:11:23;75.43;;;27.57;;
5831;SDS011;50943;51.448;7.646;2022-07-23T03:13:50;96.47;;;33.37;;
5831;SDS011;50943;51.448;7.646;2022-07-23T03:16:17;86.77;;;29.37;;
5831;SDS011;50943;51.448;7.646;2022-07-23T03:18:43;83.00;;;27.03;;
5831;SDS011;50943;51.448;7.646;2022-07-23T03:21:10;88.63;;;28.67;;
5831;SDS011;50943;51.448;7.646;2022-07-23T03:23:38;80.27;;;27.60;;
5831;SDS011;50943;51.448;7.646;2022-07-23T03:26:04;108.27;;;32.20;;
5831;SDS011;50943;51.448;7.646;2022-07-23T03:28:31;88.60;;;27.97;;
5831;SDS011;50943;51.448;7.646;2022-07-23T03:30:57;92.37;;;29.63;;
5831;SDS011;50943;51.448;7.646;2022-07-23T03:33:24;91.40;;;29.87;;
5831;SDS011;50943;51.448;7.646;2022-07-23T03:35:51;89.13;;;26.83;;
5831;SDS011;50943;51.448;7.646;2022-07-23T03:38:17;100.07;;;30.30;;
5831;SDS011;50943;51.448;7.646;2022-07-23T03:40:45;96.40;;;27.13;;
5831;SDS011;50943;51.448;7.646;2022-07-23T03:43:12;107.33;;;31.70;;
5831;SDS011;50943;51.448;7.646;2022-07-23T03:45:38;102.70;;;30.10;;
5831;SDS011;50943;51.448;7.646;2022-07-23T03:48:05;123.70;;;33.33;;
5831;SDS011;50943;51.448;7.646;2022-07-23T03:50:31;119.97;;;33.07;;
5831;SDS011;50943;51.448;7.646;2022-07-23T03:52:59;118.17;;;33.50;;
5831;SDS011;50943;51.448;7.646;2022-07-23T03:55:26;148.47;;;38.77;;
5831;SDS011;50943;51.448;7.646;2022-07-23T03:57:54;254.77;;;37.07;;
5831;SDS011;50943;51.448;7.646;2022-07-23T04:00:20;205.17;;;38.97;;
5831;SDS011;50943;51.448;7.646;2022-07-23T04:02:47;220.43;;;39.30;;
5831;SDS011;50943;51.448;7.646;2022-07-23T04:05:13;163.83;;;39.73;;
5831;SDS011;50943;51.448;7.646;2022-07-23T04:07:40;148.00;;;37.80;;
5831;SDS011;50943;51.448;7.646;2022-07-23T04:10:07;173.07;;;32.97;;
5831;SDS011;50943;51.448;7.646;2022-07-23T04:12:34;120.87;;;29.20;;
5831;SDS011;50943;51.448;7.646;2022-07-23T04:15:02;216.17;;;35.77;;
5831;SDS011;50943;51.448;7.646;2022-07-23T04:17:29;169.73;;;31.27;;
5831;SDS011;50943;51.448;7.646;2022-07-23T04:19:56;275.73;;;33.93;;
5831;SDS011;50943;51.448;7.646;2022-07-23T04:22:22;216.67;;;33.67;;
5831;SDS011;50943;51.448;7.646;2022-07-23T04:24:49;234.97;;;31.87;;
5831;SDS011;50943;51.448;7.646;2022-07-23T04:27:16;308.23;;;31.77;;
5831;SDS011;50943;51.448;7.646;2022-07-23T04:29:42;263.00;;;32.67;;
5831;SDS011;50943;51.448;7.646;2022-07-23T04:32:10;430.67;;;38.53;;
5831;SDS011;50943;51.448;7.646;2022-07-23T04:34:37;455.47;;;42.50;;
5831;SDS011;50943;51.448;7.646;2022-07-23T04:37:03;383.23;;;41.07;;
5831;SDS011;50943;51.448;7.646;2022-07-23T04:39:30;273.93;;;35.67;;
5831;SDS011;50943;51.448;7.646;2022-07-23T04:41:56;378.60;;;40.27;;
5831;SDS011;50943;51.448;7.646;2022-07-23T04:44:23;220.97;;;30.43;;
5831;SDS011;50943;51.448;7.646;2022-07-23T04:46:49;375.37;;;37.77;;
5831;SDS011;50943;51.448;7.646;2022-07-23T04:49:17;246.30;;;34.70;;
5831;SDS011;50943;51.448;7.646;2022-07-23T04:51:44;177.40;;;33.63;;
5831;SDS011;50943;51.448;7.646;2022-07-23T04:54:10;161.40;;;30.50;;
5831;SDS011;50943;51.448;7.646;2022-07-23T04:56:37;242.50;;;34.37;;
5831;SDS011;50943;51.448;7.646;2022-07-23T04:59:03;143.43;;;29.47;;
5831;SDS011;50943;51.448;7.646;2022-07-23T05:01:30;179.50;;;31.23;;
5831;SDS011;50943;51.448;7.646;2022-07-23T05:03:57;325.30;;;34.47;;
5831;SDS011;50943;51.448;7.646;2022-07-23T05:06:24;306.93;;;35.57;;
5831;SDS011;50943;51.448;7.646;2022-07-23T05:08:51;131.33;;;27.67;;
5831;SDS011;50943;51.448;7.646;2022-07-23T05:11:18;136.57;;;31.93;;
5831;SDS011;50943;51.448;7.646;2022-07-23T05:13:44;149.97;;;34.20;;
5831;SDS011;50943;51.448;7.646;2022-07-23T05:16:11;229.90;;;34.37;;
5831;SDS011;50943;51.448;7.646;2022-07-23T05:18:38;229.67;;;35.00;;
5831;SDS011;50943;51.448;7.646;2022-07-23T05:21:04;163.37;;;34.80;;
5831;SDS011;50943;51.448;7.646;2022-07-23T05:23:32;120.80;;;31.63;;
5831;SDS011;50943;51.448;7.646;2022-07-23T05:25:59;205.07;;;30.10;;
5831;SDS011;50943;51.448;7.646;2022-07-23T05:28:25;269.77;;;36.40;;
5831;SDS011;50943;51.448;7.646;2022-07-23T05:30:52;169.37;;;31.80;;
5831;SDS011;50943;51.448;7.646;2022-07-23T05:33:19;164.40;;;30.67;;
5831;SDS011;50943;51.448;7.646;2022-07-23T05:35:45;129.50;;;32.57;;
5831;SDS011;50943;51.448;7.646;2022-07-23T05:38:12;151.73;;;31.23;;
5831;SDS011;50943;51.448;7.646;2022-07-23T05:40:40;239.97;;;31.53;;
5831;SDS011;50943;51.448;7.646;2022-07-23T05:43:06;138.00;;;32.77;;
5831;SDS011;50943;51.448;7.646;2022-07-23T05:45:33;173.30;;;34.00;;
5831;SDS011;50943;51.448;7.646;2022-07-23T05:47:59;175.40;;;35.20;;
5831;SDS011;50943;51.448;7.646;2022-07-23T05:50:26;119.73;;;31.37;;
5831;SDS011;50943;51.448;7.646;2022-07-23T05:52:52;142.10;;;34.20;;
5831;SDS011;50943;51.448;7.646;2022-07-23T05:55:19;188.70;;;33.40;;
5831;SDS011;50943;51.448;7.646;2022-07-23T05:57:47;272.83;;;35.67;;
5831;SDS011;50943;51.448;7.646;2022-07-23T06:00:13;222.27;;;36.00;;
5831;SDS011;50943;51.448;7.646;2022-07-23T06:02:40;202.73;;;35.53;;
5831;SDS011;50943;51.448;7.646;2022-07-23T06:05:07;200.10;;;38.70;;
5831;SDS011;50943;51.448;7.646;2022-07-23T06:07:34;200.70;;;38.80;;
5831;SDS011;50943;51.448;7.646;2022-07-23T06:10:01;158.80;;;37.10;;
5831;SDS011;50943;51.448;7.646;2022-07-23T06:12:29;182.57;;;39.93;;
5831;SDS011;50943;51.448;7.646;2022-07-23T06:14:57;178.53;;;36.77;;
5831;SDS011;50943;51.448;7.646;2022-07-23T06:17:23;238.50;;;36.40;;
5831;SDS011;50943;51.448;7.646;2022-07-23T06:19:50;210.43;;;38.27;;
5831;SDS011;50943;51.448;7.646;2022-07-23T06:22:17;176.37;;;37.93;;
5831;SDS011;50943;51.448;7.646;2022-07-23T06:24:43;174.93;;;38.23;;
5831;SDS011;50943;51.448;7.646;2022-07-23T06:27:10;159.17;;;40.17;;
5831;SDS011;50943;51.448;7.646;2022-07-23T06:29:38;163.53;;;37.87;;
5831;SDS011;50943;51.448;7.646;2022-07-23T06:32:07;140.23;;;37.90;;
5831;SDS011;50943;51.448;7.646;2022-07-23T06:34:33;161.37;;;41.77;;
5831;SDS011;50943;51.448;7.646;2022-07-23T06:37:00;167.67;;;40.40;;
5831;SDS011;50943;51.448;7.646;2022-07-23T06:39:27;168.10;;;39.47;;
5831;SDS011;50943;51.448;7.646;2022-07-23T06:41:54;165.90;;;40.27;;
5831;SDS011;50943;51.448;7.646;2022-07-23T06:44:20;174.80;;;42.30;;
5831;SDS011;50943;51.448;7.646;2022-07-23T06:46:47;149.90;;;38.30;;
5831;SDS011;50943;51.448;7.646;2022-07-23T06:49:15;154.17;;;40.93;;
5831;SDS011;50943;51.448;7.646;2022-07-23T06:51:41;143.23;;;39.83;;
5831;SDS011;50943;51.448;7.646;2022-07-23T06:54:08;145.30;;;37.70;;
5831;SDS011;50943;51.448;7.646;2022-07-23T06:56:34;134.40;;;38.27;;
5831;SDS011;50943;51.448;7.646;2022-07-23T06:59:01;84.20;;;29.03;;
5831;SDS011;50943;51.448;7.646;2022-07-23T07:01:28;109.43;;;34.73;;
5831;SDS011;50943;51.448;7.646;2022-07-23T07:03:55;106.40;;;37.20;;
5831;SDS011;50943;51.448;7.646;2022-07-23T07:06:22;96.50;;;33.07;;
5831;SDS011;50943;51.448;7.646;2022-07-23T07:08:49;96.27;;;34.10;;
5831;SDS011;50943;51.448;7.646;2022-07-23T07:11:15;82.13;;;32.23;;
5831;SDS011;50943;51.448;7.646;2022-07-23T07:13:42;87.23;;;34.30;;
5831;SDS011;50943;51.448;7.646;2022-07-23T07:16:08;76.37;;;31.17;;
5831;SDS011;50943;51.448;7.646;2022-07-23T07:18:35;79.07;;;32.10;;
5831;SDS011;50943;51.448;7.646;2022-07-23T07:21:02;69.07;;;31.53;;
5831;SDS011;50943;51.448;7.646;2022-07-23T07:23:30;70.33;;;28.87;;
5831;SDS011;50943;51.448;7.646;2022-07-23T07:25:56;69.67;;;30.90;;
5831;SDS011;50943;51.448;7.646;2022-07-23T07:28:23;58.30;;;29.53;;
5831;SDS011;50943;51.448;7.646;2022-07-23T07:30:49;40.10;;;23.40;;
5831;SDS011;50943;51.448;7.646;2022-07-23T07:33:16;59.00;;;29.40;;
5831;SDS011;50943;51.448;7.646;2022-07-23T07:35:42;50.33;;;28.97;;
5831;SDS011;50943;51.448;7.646;2022-07-23T07:38:09;55.60;;;29.47;;
5831;SDS011;50943;51.448;7.646;2022-07-23T07:40:37;72.90;;;30.60;;
5831;SDS011;50943;51.448;7.646;2022-07-23T07:43:03;66.53;;;30.40;;
5831;SDS011;50943;51.448;7.646;2022-07-23T07:45:30;63.10;;;30.70;;
5831;SDS011;50943;51.448;7.646;2022-07-23T07:47:57;68.23;;;33.47;;
5831;SDS011;50943;51.448;7.646;2022-07-23T07:50:24;61.70;;;28.50;;
5831;SDS011;50943;51.448;7.646;2022-07-23T07:52:50;57.30;;;31.27;;
5831;SDS011;50943;51.448;7.646;2022-07-23T07:55:17;56.77;;;30.70;;
5831;SDS011;50943;51.448;7.646;2022-07-23T07:57:45;58.87;;;30.37;;
5831;SDS011;50943;51.448;7.646;2022-07-23T08:00:12;54.07;;;29.63;;
5831;SDS011;50943;51.448;7.646;2022-07-23T08:02:39;71.30;;;33.50;;
5831;SDS011;50943;51.448;7.646;2022-07-23T08:05:07;65.03;;;34.27;;
5831;SDS011;50943;51.448;7.646;2022-07-23T08:07:34;57.23;;;31.90;;
5831;SDS011;50943;51.448;7.646;2022-07-23T08:10:02;48.80;;;29.43;;
5831;SDS011;50943;51.448;7.646;2022-07-23T08:12:37;42.63;;;29.70;;
5831;SDS011;50943;51.448;7.646;2022-07-23T08:15:06;38.33;;;26.30;;
5831;SDS011;50943;51.448;7.646;2022-07-23T08:17:33;31.43;;;24.93;;
5831;SDS011;50943;51.448;7.646;2022-07-23T08:20:00;27.67;;;21.27;;
5831;SDS011;50943;51.448;7.646;2022-07-23T08:22:40;27.60;;;20.40;;
5831;SDS011;50943;51.448;7.646;2022-07-23T08:25:08;21.57;;;18.90;;
5831;SDS011;50943;51.448;7.646;2022-07-23T08:27:35;22.43;;;18.60;;
5831;SDS011;50943;51.448;7.646;2022-07-23T08:30:01;31.87;;;22.70;;
5831;SDS011;50943;51.448;7.646;2022-07-23T08:32:29;32.87;;;25.83;;
5831;SDS011;50943;51.448;7.646;2022-07-23T08:34:56;31.73;;;26.87;;
5831;SDS011;50943;51.448;7.646;2022-07-23T08:37:22;35.53;;;28.17;;
5831;SDS011;50943;51.448;7.646;2022-07-23T08:39:49;39.70;;;28.17;;
5831;SDS011;50943;51.448;7.646;2022-07-23T08:42:15;32.20;;;26.20;;
5831;SDS011;50943;51.448;7.646;2022-07-23T08:44:44;33.00;;;25.83;;
5831;SDS011;50943;51.448;7.646;2022-07-23T08:47:11;35.00;;;26.07;;
5831;SDS011;50943;51.448;7.646;2022-07-23T08:49:39;31.63;;;26.70;;
5831;SDS011;50943;51.448;7.646;2022-07-23T08:52:06;30.00;;;23.97;;
5831;SDS011;50943;51.448;7.646;2022-07-23T08:54:33;36.17;;;26.20;;
5831;SDS011;50943;51.448;7.646;2022-07-23T08:57:01;31.33;;;25.70;;
5831;SDS011;50943;51.448;7.646;2022-07-23T08:59:28;29.53;;;25.60;;
5831;SDS011;50943;51.448;7.646;2022-07-23T09:01:57;29.17;;;25.03;;
5831;SDS011;50943;51.448;7.646;2022-07-23T09:04:25;34.17;;;24.63;;
5831;SDS011;50943;51.448;7.646;2022-07-23T09:06:53;27.63;;;24.70;;
5831;SDS011;50943;51.448;7.646;2022-07-23T09:09:20;26.27;;;23.47;;
5831;SDS011;50943;51.448;7.646;2022-07-23T09:11:47;26.40;;;23.60;;
5831;SDS011;50943;51.448;7.646;2022-07-23T09:14:13;24.50;;;20.97;;
5831;SDS011;50943;51.448;7.646;2022-07-23T09:16:40;25.93;;;23.23;;
5831;SDS011;50943;51.448;7.646;2022-07-23T09:19:09;24.67;;;22.00;;
5831;SDS011;50943;51.448;7.646;2022-07-23T09:21:37;23.63;;;21.33;;
5831;SDS011;50943;51.448;7.646;2022-07-23T09:24:06;22.90;;;20.47;;
5831;SDS011;50943;51.448;7.646;2022-07-23T09:26:35;24.37;;;21.70;;
5831;SDS011;50943;51.448;7.646;2022-07-23T09:29:04;23.77;;;20.97;;
5831;SDS011;50943;51.448;7.646;2022-07-23T09:31:41;22.13;;;19.80;;
5831;SDS011;50943;51.448;7.646;2022-07-23T09:34:11;22.17;;;19.90;;
5831;SDS011;50943;51.448;7.646;2022-07-23T09:36:39;22.20;;;19.90;;
5831;SDS011;50943;51.448;7.646;2022-07-23T09:39:08;22.13;;;19.80;;
5831;SDS011;50943;51.448;7.646;2022-07-23T09:41:35;25.70;;;23.10;;
5831;SDS011;50943;51.448;7.646;2022-07-23T09:44:11;24.73;;;22.13;;
5831;SDS011;50943;51.448;7.646;2022-07-23T09:46:39;27.73;;;24.80;;
5831;SDS011;50943;51.448;7.646;2022-07-23T09:49:10;26.63;;;23.80;;
5831;SDS011;50943;51.448;7.646;2022-07-23T09:51:45;25.40;;;22.80;;
5831;SDS011;50943;51.448;7.646;2022-07-23T09:54:22;22.57;;;20.23;;
5831;SDS011;50943;51.448;7.646;2022-07-23T09:56:58;22.40;;;18.93;;
5831;SDS011;50943;51.448;7.646;2022-07-23T09:59:27;20.30;;;18.20;;
5831;SDS011;50943;51.448;7.646;2022-07-23T10:01:55;18.93;;;17.20;;
5831;SDS011;50943;51.448;7.646;2022-07-23T10:04:24;17.40;;;15.80;;
5831;SDS011;50943;51.448;7.646;2022-07-23T10:06:52;15.23;;;13.93;;
5831;SDS011;50943;51.448;7.646;2022-07-23T10:09:24;15.17;;;13.67;;
5831;SDS011;50943;51.448;7.646;2022-07-23T10:11:54;14.20;;;11.97;;
5831;SDS011;50943;51.448;7.646;2022-07-23T10:14:24;16.70;;;15.00;;
5831;SDS011;50943;51.448;7.646;2022-07-23T10:16:52;13.63;;;12.30;;
5831;SDS011;50943;51.448;7.646;2022-07-23T10:19:19;15.70;;;10.23;;
5831;SDS011;50943;51.448;7.646;2022-07-23T10:21:46;14.03;;;10.03;;
5831;SDS011;50943;51.448;7.646;2022-07-23T10:24:18;11.20;;;8.57;;
5831;SDS011;50943;51.448;7.646;2022-07-23T10:26:53;10.23;;;9.33;;
5831;SDS011;50943;51.448;7.646;2022-07-23T10:29:30;11.37;;;10.27;;
5831;SDS011;50943;51.448;7.646;2022-07-23T10:32:07;10.50;;;9.50;;
5831;SDS011;50943;51.448;7.646;2022-07-23T10:34:40;12.93;;;10.63;;
5831;SDS011;50943;51.448;7.646;2022-07-23T10:37:12;10.50;;;9.60;;
5831;SDS011;50943;51.448;7.646;2022-07-23T10:39:45;10.57;;;9.47;;
5831;SDS011;50943;51.448;7.646;2022-07-23T10:42:14;11.03;;;7.77;;
5831;SDS011;50943;51.448;7.646;2022-07-23T10:44:43;7.70;;;6.93;;
5831;SDS011;50943;51.448;7.646;2022-07-23T10:47:11;8.60;;;7.30;;
5831;SDS011;50943;51.448;7.646;2022-07-23T10:55:39;9.10;;;5.30;;
5831;SDS011;50943;51.448;7.646;2022-07-23T10:58:08;6.23;;;5.20;;
5831;SDS011;50943;51.448;7.646;2022-07-23T11:00:36;8.27;;;5.90;;
5831;SDS011;50943;51.448;7.646;2022-07-23T11:03:03;7.60;;;5.37;;
5831;SDS011;50943;51.448;7.646;2022-07-23T11:05:40;7.00;;;5.37;;
5831;SDS011;50943;51.448;7.646;2022-07-23T11:08:12;6.20;;;4.80;;
5831;SDS011;50943;51.448;7.646;2022-07-23T11:10:43;5.63;;;5.13;;
5831;SDS011;50943;51.448;7.646;2022-07-23T11:13:28;5.10;;;4.60;;
5831;SDS011;50943;51.448;7.646;2022-07-23T11:18:52;5.37;;;3.53;;
5831;SDS011;50943;51.448;7.646;2022-07-23T11:24:07;4.87;;;3.53;;
5831;SDS011;50943;51.448;7.646;2022-07-23T11:26:41;5.83;;;3.40;;
5831;SDS011;50943;51.448;7.646;2022-07-23T11:32:24;7.70;;;3.60;;
5831;SDS011;50943;51.448;7.646;2022-07-23T11:34:55;3.10;;;2.80;;
5831;SDS011;50943;51.448;7.646;2022-07-23T11:37:29;3.10;;;2.60;;
5831;SDS011;50943;51.448;7.646;2022-07-23T11:39:59;2.97;;;2.23;;
5831;SDS011;50943;51.448;7.646;2022-07-23T11:42:26;5.27;;;2.13;;
5831;SDS011;50943;51.448;7.646;2022-07-23T11:44:53;7.17;;;3.10;;
5831;SDS011;50943;51.448;7.646;2022-07-23T11:47:21;4.07;;;2.63;;
5831;SDS011;50943;51.448;7.646;2022-07-23T11:49:52;5.30;;;2.90;;
5831;SDS011;50943;51.448;7.646;2022-07-23T11:52:20;3.30;;;2.93;;
5831;SDS011;50943;51.448;7.646;2022-07-23T11:54:47;3.13;;;2.33;;
5831;SDS011;50943;51.448;7.646;2022-07-23T11:57:15;7.00;;;3.03;;
5831;SDS011;50943;51.448;7.646;2022-07-23T11:59:43;4.27;;;2.40;;
5831;SDS011;50943;51.448;7.646;2022-07-23T12:02:12;4.80;;;2.47;;
5831;SDS011;50943;51.448;7.646;2022-07-23T12:04:39;2.53;;;2.33;;
5831;SDS011;50943;51.448;7.646;2022-07-23T12:09:52;5.67;;;2.57;;
5831;SDS011;50943;51.448;7.646;2022-07-23T12:12:19;7.30;;;2.77;;
5831;SDS011;50943;51.448;7.646;2022-07-23T12:14:47;3.90;;;2.87;;
5831;SDS011;50943;51.448;7.646;2022-07-23T12:17:14;4.73;;;2.37;;
5831;SDS011;50943;51.448;7.646;2022-07-23T12:19:41;2.95;;;2.00;;
5831;SDS011;50943;51.448;7.646;2022-07-23T12:22:08;4.93;;;2.70;;
5831;SDS011;50943;51.448;7.646;2022-07-23T12:27:25;4.57;;;2.40;;
5831;SDS011;50943;51.448;7.646;2022-07-23T12:29:52;3.15;;;2.45;;
5831;SDS011;50943;51.448;7.646;2022-07-23T12:32:20;2.85;;;2.38;;
5831;SDS011;50943;51.448;7.646;2022-07-23T12:34:48;2.85;;;2.30;;
5831;SDS011;50943;51.448;7.646;2022-07-23T12:37:25;2.80;;;2.20;;
5831;SDS011;50943;51.448;7.646;2022-07-23T12:39:52;4.13;;;2.50;;
5831;SDS011;50943;51.448;7.646;2022-07-23T12:42:20;5.47;;;2.63;;
5831;SDS011;50943;51.448;7.646;2022-07-23T12:45:06;3.40;;;2.67;;
5831;SDS011;50943;51.448;7.646;2022-07-23T12:50:38;3.10;;;2.25;;
5831;SDS011;50943;51.448;7.646;2022-07-23T12:53:07;2.57;;;2.10;;
5831;SDS011;50943;51.448;7.646;2022-07-23T12:55:35;6.50;;;2.07;;
5831;SDS011;50943;51.448;7.646;2022-07-23T12:58:04;3.60;;;2.50;;
5831;SDS011;50943;51.448;7.646;2022-07-23T13:03:27;4.40;;;2.40;;
5831;SDS011;50943;51.448;7.646;2022-07-23T13:05:55;2.93;;;2.50;;
5831;SDS011;50943;51.448;7.646;2022-07-23T13:08:23;3.47;;;2.77;;
5831;SDS011;50943;51.448;7.646;2022-07-23T13:10:50;4.90;;;3.17;;
5831;SDS011;50943;51.448;7.646;2022-07-23T13:13:20;3.27;;;2.17;;
5831;SDS011;50943;51.448;7.646;2022-07-23T13:15:48;4.03;;;2.60;;
5831;SDS011;50943;51.448;7.646;2022-07-23T13:18:15;2.77;;;2.27;;
5831;SDS011;50943;51.448;7.646;2022-07-23T13:20:43;3.17;;;2.50;;
5831;SDS011;50943;51.448;7.646;2022-07-23T13:23:10;3.07;;;2.40;;
5831;SDS011;50943;51.448;7.646;2022-07-23T13:25:36;2.63;;;2.07;;
5831;SDS011;50943;51.448;7.646;2022-07-23T13:28:03;2.53;;;2.30;;
5831;SDS011;50943;51.448;7.646;2022-07-23T13:30:31;3.80;;;2.27;;
5831;SDS011;50943;51.448;7.646;2022-07-23T13:32:58;3.30;;;2.27;;
5831;SDS011;50943;51.448;7.646;2022-07-23T13:35:25;4.27;;;2.80;;
5831;SDS011;50943;51.448;7.646;2022-07-23T13:37:51;4.00;;;2.67;;
5831;SDS011;50943;51.448;7.646;2022-07-23T13:40:18;4.23;;;2.53;;
5831;SDS011;50943;51.448;7.646;2022-07-23T13:42:45;3.37;;;1.97;;
5831;SDS011;50943;51.448;7.646;2022-07-23T13:45:12;2.63;;;2.30;;
5831;SDS011;50943;51.448;7.646;2022-07-23T13:47:40;2.87;;;2.00;;
5831;SDS011;50943;51.448;7.646;2022-07-23T13:50:06;5.00;;;2.43;;
5831;SDS011;50943;51.448;7.646;2022-07-23T13:52:33;2.23;;;2.03;;
5831;SDS011;50943;51.448;7.646;2022-07-23T13:55:00;4.17;;;2.30;;
5831;SDS011;50943;51.448;7.646;2022-07-23T13:57:28;4.47;;;2.00;;
5831;SDS011;50943;51.448;7.646;2022-07-23T13:59:55;3.37;;;2.13;;
5831;SDS011;50943;51.448;7.646;2022-07-23T14:02:22;2.70;;;1.87;;
5831;SDS011;50943;51.448;7.646;2022-07-23T14:04:50;4.07;;;2.10;;
5831;SDS011;50943;51.448;7.646;2022-07-23T14:07:17;5.43;;;2.30;;
5831;SDS011;50943;51.448;7.646;2022-07-23T14:09:44;2.87;;;2.40;;
5831;SDS011;50943;51.448;7.646;2022-07-23T14:12:10;3.50;;;2.10;;
5831;SDS011;50943;51.448;7.646;2022-07-23T14:14:37;3.77;;;2.33;;
5831;SDS011;50943;51.448;7.646;2022-07-23T14:17:04;3.10;;;2.23;;
5831;SDS011;50943;51.448;7.646;2022-07-23T14:19:30;2.50;;;2.10;;
5831;SDS011;50943;51.448;7.646;2022-07-23T14:21:58;2.23;;;1.70;;
5831;SDS011;50943;51.448;7.646;2022-07-23T14:24:25;2.50;;;1.77;;
5831;SDS011;50943;51.448;7.646;2022-07-23T14:26:52;2.73;;;1.93;;
5831;SDS011;50943;51.448;7.646;2022-07-23T14:29:18;4.60;;;2.00;;
5831;SDS011;50943;51.448;7.646;2022-07-23T14:31:45;2.90;;;1.83;;
5831;SDS011;50943;51.448;7.646;2022-07-23T14:34:11;2.83;;;1.80;;
5831;SDS011;50943;51.448;7.646;2022-07-23T14:36:38;3.07;;;2.07;;
5831;SDS011;50943;51.448;7.646;2022-07-23T14:39:06;2.30;;;1.80;;
5831;SDS011;50943;51.448;7.646;2022-07-23T14:41:34;3.30;;;2.27;;
5831;SDS011;50943;51.448;7.646;2022-07-23T14:44:00;2.70;;;1.83;;
5831;SDS011;50943;51.448;7.646;2022-07-23T14:46:27;3.03;;;1.90;;
5831;SDS011;50943;51.448;7.646;2022-07-23T14:48:54;5.20;;;2.20;;
5831;SDS011;50943;51.448;7.646;2022-07-23T14:51:21;3.30;;;2.10;;
5831;SDS011;50943;51.448;7.646;2022-07-23T14:53:48;4.73;;;2.20;;
5831;SDS011;50943;51.448;7.646;2022-07-23T14:56:15;2.73;;;2.07;;
5831;SDS011;50943;51.448;7.646;2022-07-23T14:58:42;3.30;;;2.07;;
5831;SDS011;50943;51.448;7.646;2022-07-23T15:01:09;8.80;;;2.50;;
5831;SDS011;50943;51.448;7.646;2022-07-23T15:03:35;2.60;;;1.90;;
5831;SDS011;50943;51.448;7.646;2022-07-23T15:06:02;3.07;;;2.20;;